sensor_id;sensor_type;location;lat;lon;timestamp;P1;durP1;ratioP1;P2;durP2;ratioP2
11228;SDS011;5671;47.936;8.716;2023-04-09T00:02:17;8.57;;;7.77;;
11228;SDS011;5671;47.936;8.716;2023-04-09T00:04:45;9.30;;;8.30;;
11228;SDS011;5671;47.936;8.716;2023-04-09T00:07:12;9.23;;;8.40;;
11228;SDS011;5671;47.936;8.716;2023-04-09T00:09:38;9.70;;;8.80;;
11228;SDS011;5671;47.936;8.716;2023-04-09T00:12:05;8.77;;;7.97;;
11228;SDS011;5671;47.936;8.716;2023-04-09T00:14:32;10.03;;;8.93;;
11228;SDS011;5671;47.936;8.716;2023-04-09T00:16:59;9.20;;;8.40;;
11228;SDS011;5671;47.936;8.716;2023-04-09T00:19:25;8.50;;;7.70;;
11228;SDS011;5671;47.936;8.716;2023-04-09T00:21:54;8.70;;;7.90;;
11228;SDS011;5671;47.936;8.716;2023-04-09T00:24:21;9.10;;;8.30;;
11228;SDS011;5671;47.936;8.716;2023-04-09T00:26:47;8.57;;;7.77;;
11228;SDS011;5671;47.936;8.716;2023-04-09T00:29:14;9.10;;;8.13;;
11228;SDS011;5671;47.936;8.716;2023-04-09T00:31:41;9.00;;;8.20;;
11228;SDS011;5671;47.936;8.716;2023-04-09T00:34:08;9.27;;;8.47;;
11228;SDS011;5671;47.936;8.716;2023-04-09T00:36:35;9.10;;;8.30;;
11228;SDS011;5671;47.936;8.716;2023-04-09T00:39:03;8.83;;;8.03;;
11228;SDS011;5671;47.936;8.716;2023-04-09T00:41:30;8.90;;;8.00;;
11228;SDS011;5671;47.936;8.716;2023-04-09T00:43:57;9.07;;;8.17;;
11228;SDS011;5671;47.936;8.716;2023-04-09T00:46:24;8.90;;;8.07;;
11228;SDS011;5671;47.936;8.716;2023-04-09T00:48:51;8.73;;;7.93;;
11228;SDS011;5671;47.936;8.716;2023-04-09T00:51:17;8.90;;;8.10;;
11228;SDS011;5671;47.936;8.716;2023-04-09T00:53:44;8.47;;;7.67;;
11228;SDS011;5671;47.936;8.716;2023-04-09T00:56:14;8.87;;;8.07;;
11228;SDS011;5671;47.936;8.716;2023-04-09T00:58:42;8.87;;;8.00;;
11228;SDS011;5671;47.936;8.716;2023-04-09T01:01:09;8.73;;;7.93;;
11228;SDS011;5671;47.936;8.716;2023-04-09T01:03:36;9.10;;;8.20;;
11228;SDS011;5671;47.936;8.716;2023-04-09T01:06:04;8.27;;;7.47;;
11228;SDS011;5671;47.936;8.716;2023-04-09T01:08:37;8.60;;;7.80;;
11228;SDS011;5671;47.936;8.716;2023-04-09T01:11:15;8.90;;;8.10;;
11228;SDS011;5671;47.936;8.716;2023-04-09T01:13:54;8.83;;;8.03;;
11228;SDS011;5671;47.936;8.716;2023-04-09T01:16:25;8.43;;;7.70;;
11228;SDS011;5671;47.936;8.716;2023-04-09T01:18:55;9.13;;;8.23;;
11228;SDS011;5671;47.936;8.716;2023-04-09T01:21:28;8.93;;;8.07;;
11228;SDS011;5671;47.936;8.716;2023-04-09T01:23:58;8.47;;;7.67;;
11228;SDS011;5671;47.936;8.716;2023-04-09T01:26:40;9.03;;;8.23;;
11228;SDS011;5671;47.936;8.716;2023-04-09T01:29:20;9.53;;;7.90;;
11228;SDS011;5671;47.936;8.716;2023-04-09T01:31:49;8.27;;;7.50;;
11228;SDS011;5671;47.936;8.716;2023-04-09T01:34:18;9.10;;;8.20;;
11228;SDS011;5671;47.936;8.716;2023-04-09T01:36:47;8.87;;;8.03;;
11228;SDS011;5671;47.936;8.716;2023-04-09T01:39:17;8.37;;;7.60;;
11228;SDS011;5671;47.936;8.716;2023-04-09T01:41:44;9.47;;;8.57;;
11228;SDS011;5671;47.936;8.716;2023-04-09T01:44:13;8.93;;;8.13;;
11228;SDS011;5671;47.936;8.716;2023-04-09T01:46:42;9.00;;;8.10;;
11228;SDS011;5671;47.936;8.716;2023-04-09T01:49:09;10.13;;;7.87;;
11228;SDS011;5671;47.936;8.716;2023-04-09T01:51:37;8.23;;;7.50;;
11228;SDS011;5671;47.936;8.716;2023-04-09T01:54:04;8.10;;;7.30;;
11228;SDS011;5671;47.936;8.716;2023-04-09T01:56:38;8.37;;;7.57;;
11228;SDS011;5671;47.936;8.716;2023-04-09T01:59:06;8.30;;;7.50;;
11228;SDS011;5671;47.936;8.716;2023-04-09T02:01:34;8.57;;;7.77;;
11228;SDS011;5671;47.936;8.716;2023-04-09T02:04:08;9.10;;;8.20;;
11228;SDS011;5671;47.936;8.716;2023-04-09T02:06:40;8.70;;;7.90;;
11228;SDS011;5671;47.936;8.716;2023-04-09T02:09:12;8.23;;;7.53;;
11228;SDS011;5671;47.936;8.716;2023-04-09T02:11:43;9.10;;;8.30;;
11228;SDS011;5671;47.936;8.716;2023-04-09T02:14:12;9.37;;;8.37;;
11228;SDS011;5671;47.936;8.716;2023-04-09T02:16:41;9.67;;;8.50;;
11228;SDS011;5671;47.936;8.716;2023-04-09T02:19:09;8.77;;;7.97;;
11228;SDS011;5671;47.936;8.716;2023-04-09T02:21:36;7.70;;;7.00;;
11228;SDS011;5671;47.936;8.716;2023-04-09T02:24:03;9.03;;;7.27;;
11228;SDS011;5671;47.936;8.716;2023-04-09T02:26:30;8.40;;;7.60;;
11228;SDS011;5671;47.936;8.716;2023-04-09T02:28:57;9.13;;;8.33;;
11228;SDS011;5671;47.936;8.716;2023-04-09T02:31:24;8.50;;;7.70;;
11228;SDS011;5671;47.936;8.716;2023-04-09T02:33:50;8.10;;;7.30;;
11228;SDS011;5671;47.936;8.716;2023-04-09T02:36:19;8.73;;;7.93;;
11228;SDS011;5671;47.936;8.716;2023-04-09T02:38:46;8.33;;;7.53;;
11228;SDS011;5671;47.936;8.716;2023-04-09T02:41:13;8.43;;;7.63;;
11228;SDS011;5671;47.936;8.716;2023-04-09T02:43:40;7.93;;;7.13;;
11228;SDS011;5671;47.936;8.716;2023-04-09T02:46:07;9.23;;;7.10;;
11228;SDS011;5671;47.936;8.716;2023-04-09T02:48:33;8.57;;;7.20;;
11228;SDS011;5671;47.936;8.716;2023-04-09T02:51:00;9.53;;;8.13;;
11228;SDS011;5671;47.936;8.716;2023-04-09T02:53:31;8.27;;;7.40;;
11228;SDS011;5671;47.936;8.716;2023-04-09T02:55:57;8.80;;;8.03;;
11228;SDS011;5671;47.936;8.716;2023-04-09T02:58:24;7.93;;;7.23;;
11228;SDS011;5671;47.936;8.716;2023-04-09T03:00:51;8.40;;;7.60;;
11228;SDS011;5671;47.936;8.716;2023-04-09T03:03:18;8.30;;;7.50;;
11228;SDS011;5671;47.936;8.716;2023-04-09T03:05:45;8.63;;;7.73;;
11228;SDS011;5671;47.936;8.716;2023-04-09T03:08:11;8.90;;;8.00;;
11228;SDS011;5671;47.936;8.716;2023-04-09T03:10:40;9.27;;;8.37;;
11228;SDS011;5671;47.936;8.716;2023-04-09T03:13:06;8.57;;;7.77;;
11228;SDS011;5671;47.936;8.716;2023-04-09T03:15:33;9.33;;;8.43;;
11228;SDS011;5671;47.936;8.716;2023-04-09T03:18:00;8.73;;;7.83;;
11228;SDS011;5671;47.936;8.716;2023-04-09T03:20:27;8.43;;;7.63;;
11228;SDS011;5671;47.936;8.716;2023-04-09T03:22:53;8.93;;;8.03;;
11228;SDS011;5671;47.936;8.716;2023-04-09T03:25:20;8.77;;;7.73;;
11228;SDS011;5671;47.936;8.716;2023-04-09T03:27:49;9.63;;;8.73;;
11228;SDS011;5671;47.936;8.716;2023-04-09T03:30:15;9.50;;;8.60;;
11228;SDS011;5671;47.936;8.716;2023-04-09T03:32:42;9.50;;;8.60;;
11228;SDS011;5671;47.936;8.716;2023-04-09T03:35:09;9.17;;;8.27;;
11228;SDS011;5671;47.936;8.716;2023-04-09T03:37:36;8.67;;;7.83;;
11228;SDS011;5671;47.936;8.716;2023-04-09T03:40:03;9.43;;;8.53;;
11228;SDS011;5671;47.936;8.716;2023-04-09T03:42:30;9.00;;;8.10;;
11228;SDS011;5671;47.936;8.716;2023-04-09T03:45:00;10.07;;;9.10;;
11228;SDS011;5671;47.936;8.716;2023-04-09T03:47:27;9.30;;;8.40;;
11228;SDS011;5671;47.936;8.716;2023-04-09T03:49:53;9.70;;;8.80;;
11228;SDS011;5671;47.936;8.716;2023-04-09T03:52:20;9.43;;;8.57;;
11228;SDS011;5671;47.936;8.716;2023-04-09T03:54:47;9.30;;;8.13;;
11228;SDS011;5671;47.936;8.716;2023-04-09T03:57:14;12.27;;;9.53;;
11228;SDS011;5671;47.936;8.716;2023-04-09T03:59:41;9.73;;;8.73;;
11228;SDS011;5671;47.936;8.716;2023-04-09T04:02:09;9.80;;;8.80;;
11228;SDS011;5671;47.936;8.716;2023-04-09T04:04:36;9.47;;;8.57;;
11228;SDS011;5671;47.936;8.716;2023-04-09T04:07:02;9.37;;;8.47;;
11228;SDS011;5671;47.936;8.716;2023-04-09T04:09:29;8.63;;;7.83;;
11228;SDS011;5671;47.936;8.716;2023-04-09T04:11:56;9.57;;;8.47;;
11228;SDS011;5671;47.936;8.716;2023-04-09T04:14:23;10.90;;;8.97;;
11228;SDS011;5671;47.936;8.716;2023-04-09T04:16:50;9.57;;;8.67;;
11228;SDS011;5671;47.936;8.716;2023-04-09T04:19:18;10.87;;;8.97;;
11228;SDS011;5671;47.936;8.716;2023-04-09T04:21:45;9.87;;;8.97;;
11228;SDS011;5671;47.936;8.716;2023-04-09T04:24:11;12.37;;;11.17;;
11228;SDS011;5671;47.936;8.716;2023-04-09T04:26:38;10.70;;;9.60;;
11228;SDS011;5671;47.936;8.716;2023-04-09T04:29:05;11.87;;;10.67;;
11228;SDS011;5671;47.936;8.716;2023-04-09T04:31:32;10.73;;;9.60;;
11228;SDS011;5671;47.936;8.716;2023-04-09T04:33:59;9.47;;;8.57;;
11228;SDS011;5671;47.936;8.716;2023-04-09T04:36:27;12.50;;;11.27;;
11228;SDS011;5671;47.936;8.716;2023-04-09T04:38:54;15.87;;;14.37;;
11228;SDS011;5671;47.936;8.716;2023-04-09T04:41:20;17.23;;;15.53;;
11228;SDS011;5671;47.936;8.716;2023-04-09T04:43:47;14.10;;;12.63;;
11228;SDS011;5671;47.936;8.716;2023-04-09T04:46:14;16.03;;;14.37;;
11228;SDS011;5671;47.936;8.716;2023-04-09T04:48:41;11.37;;;10.17;;
11228;SDS011;5671;47.936;8.716;2023-04-09T04:51:07;10.37;;;9.30;;
11228;SDS011;5671;47.936;8.716;2023-04-09T04:53:36;11.97;;;10.87;;
11228;SDS011;5671;47.936;8.716;2023-04-09T04:56:03;10.70;;;9.70;;
11228;SDS011;5671;47.936;8.716;2023-04-09T04:58:30;11.30;;;10.20;;
11228;SDS011;5671;47.936;8.716;2023-04-09T05:00:57;10.73;;;9.63;;
11228;SDS011;5671;47.936;8.716;2023-04-09T05:03:24;9.33;;;8.43;;
11228;SDS011;5671;47.936;8.716;2023-04-09T05:05:51;8.73;;;7.83;;
11228;SDS011;5671;47.936;8.716;2023-04-09T05:08:17;9.20;;;8.20;;
11228;SDS011;5671;47.936;8.716;2023-04-09T05:10:46;9.40;;;8.50;;
11228;SDS011;5671;47.936;8.716;2023-04-09T05:13:12;9.57;;;8.67;;
11228;SDS011;5671;47.936;8.716;2023-04-09T05:15:39;9.60;;;8.63;;
11228;SDS011;5671;47.936;8.716;2023-04-09T05:18:06;9.23;;;8.33;;
11228;SDS011;5671;47.936;8.716;2023-04-09T05:20:33;9.17;;;8.27;;
11228;SDS011;5671;47.936;8.716;2023-04-09T05:23:00;9.00;;;8.10;;
11228;SDS011;5671;47.936;8.716;2023-04-09T05:25:27;10.13;;;9.13;;
11228;SDS011;5671;47.936;8.716;2023-04-09T05:27:55;9.43;;;8.53;;
11228;SDS011;5671;47.936;8.716;2023-04-09T05:30:22;10.07;;;9.00;;
11228;SDS011;5671;47.936;8.716;2023-04-09T05:32:49;9.07;;;8.17;;
11228;SDS011;5671;47.936;8.716;2023-04-09T05:35:16;10.17;;;8.37;;
11228;SDS011;5671;47.936;8.716;2023-04-09T05:37:43;9.67;;;8.77;;
11228;SDS011;5671;47.936;8.716;2023-04-09T05:40:10;9.43;;;8.53;;
11228;SDS011;5671;47.936;8.716;2023-04-09T05:42:38;8.77;;;7.97;;
11228;SDS011;5671;47.936;8.716;2023-04-09T05:45:07;9.83;;;8.83;;
11228;SDS011;5671;47.936;8.716;2023-04-09T05:47:35;10.23;;;9.10;;
11228;SDS011;5671;47.936;8.716;2023-04-09T05:50:01;8.87;;;8.00;;
11228;SDS011;5671;47.936;8.716;2023-04-09T05:52:29;9.30;;;8.50;;
11228;SDS011;5671;47.936;8.716;2023-04-09T05:54:56;10.50;;;9.50;;
11228;SDS011;5671;47.936;8.716;2023-04-09T05:57:22;9.43;;;8.57;;
11228;SDS011;5671;47.936;8.716;2023-04-09T05:59:49;9.23;;;8.37;;
11228;SDS011;5671;47.936;8.716;2023-04-09T06:02:17;9.77;;;8.87;;
11228;SDS011;5671;47.936;8.716;2023-04-09T06:04:44;10.03;;;9.03;;
11228;SDS011;5671;47.936;8.716;2023-04-09T06:07:11;10.50;;;9.50;;
11228;SDS011;5671;47.936;8.716;2023-04-09T06:09:38;11.97;;;10.87;;
11228;SDS011;5671;47.936;8.716;2023-04-09T06:12:05;12.67;;;11.37;;
11228;SDS011;5671;47.936;8.716;2023-04-09T06:14:31;11.23;;;10.23;;
11228;SDS011;5671;47.936;8.716;2023-04-09T06:16:58;10.40;;;9.40;;
11228;SDS011;5671;47.936;8.716;2023-04-09T06:19:26;11.27;;;10.20;;
11228;SDS011;5671;47.936;8.716;2023-04-09T06:21:53;12.13;;;11.03;;
11228;SDS011;5671;47.936;8.716;2023-04-09T06:24:20;10.50;;;9.50;;
11228;SDS011;5671;47.936;8.716;2023-04-09T06:26:47;10.70;;;9.70;;
11228;SDS011;5671;47.936;8.716;2023-04-09T06:29:14;11.07;;;10.07;;
11228;SDS011;5671;47.936;8.716;2023-04-09T06:31:40;11.67;;;10.57;;
11228;SDS011;5671;47.936;8.716;2023-04-09T06:34:07;10.57;;;9.57;;
11228;SDS011;5671;47.936;8.716;2023-04-09T06:36:36;11.23;;;10.17;;
11228;SDS011;5671;47.936;8.716;2023-04-09T06:39:04;11.47;;;10.37;;
11228;SDS011;5671;47.936;8.716;2023-04-09T06:41:31;11.23;;;10.17;;
11228;SDS011;5671;47.936;8.716;2023-04-09T06:43:58;10.40;;;9.50;;
11228;SDS011;5671;47.936;8.716;2023-04-09T06:46:25;9.93;;;9.07;;
11228;SDS011;5671;47.936;8.716;2023-04-09T06:48:52;11.10;;;10.10;;
11228;SDS011;5671;47.936;8.716;2023-04-09T06:51:19;11.10;;;10.10;;
11228;SDS011;5671;47.936;8.716;2023-04-09T06:53:47;10.83;;;9.93;;
11228;SDS011;5671;47.936;8.716;2023-04-09T06:56:14;10.20;;;9.20;;
11228;SDS011;5671;47.936;8.716;2023-04-09T06:58:41;10.93;;;9.93;;
11228;SDS011;5671;47.936;8.716;2023-04-09T07:01:08;10.03;;;9.03;;
11228;SDS011;5671;47.936;8.716;2023-04-09T07:03:35;9.47;;;8.47;;
11228;SDS011;5671;47.936;8.716;2023-04-09T07:06:01;10.33;;;9.43;;
11228;SDS011;5671;47.936;8.716;2023-04-09T07:08:29;10.30;;;9.33;;
11228;SDS011;5671;47.936;8.716;2023-04-09T07:10:57;10.10;;;9.20;;
11228;SDS011;5671;47.936;8.716;2023-04-09T07:13:24;9.50;;;8.70;;
11228;SDS011;5671;47.936;8.716;2023-04-09T07:15:50;9.00;;;8.20;;
11228;SDS011;5671;47.936;8.716;2023-04-09T07:18:17;9.27;;;8.47;;
11228;SDS011;5671;47.936;8.716;2023-04-09T07:20:44;8.73;;;7.93;;
11228;SDS011;5671;47.936;8.716;2023-04-09T07:23:11;8.77;;;7.97;;
11228;SDS011;5671;47.936;8.716;2023-04-09T07:25:38;9.10;;;8.30;;
11228;SDS011;5671;47.936;8.716;2023-04-09T07:28:06;8.37;;;7.67;;
11228;SDS011;5671;47.936;8.716;2023-04-09T07:30:33;8.33;;;7.53;;
11228;SDS011;5671;47.936;8.716;2023-04-09T07:33:00;8.73;;;7.83;;
11228;SDS011;5671;47.936;8.716;2023-04-09T07:35:27;8.70;;;7.90;;
11228;SDS011;5671;47.936;8.716;2023-04-09T07:37:53;8.63;;;7.83;;
11228;SDS011;5671;47.936;8.716;2023-04-09T07:40:21;8.90;;;8.10;;
11228;SDS011;5671;47.936;8.716;2023-04-09T07:42:48;8.67;;;7.83;;
11228;SDS011;5671;47.936;8.716;2023-04-09T07:45:16;7.73;;;7.03;;
11228;SDS011;5671;47.936;8.716;2023-04-09T07:47:43;8.00;;;7.30;;
11228;SDS011;5671;47.936;8.716;2023-04-09T07:50:10;7.57;;;6.83;;
11228;SDS011;5671;47.936;8.716;2023-04-09T07:52:36;7.53;;;6.83;;
11228;SDS011;5671;47.936;8.716;2023-04-09T07:55:04;7.00;;;6.33;;
11228;SDS011;5671;47.936;8.716;2023-04-09T07:57:31;6.03;;;5.53;;
11228;SDS011;5671;47.936;8.716;2023-04-09T07:59:58;5.90;;;5.40;;
11228;SDS011;5671;47.936;8.716;2023-04-09T08:02:26;6.37;;;5.87;;
11228;SDS011;5671;47.936;8.716;2023-04-09T08:04:54;6.03;;;5.53;;
11228;SDS011;5671;47.936;8.716;2023-04-09T08:07:21;5.53;;;5.03;;
11228;SDS011;5671;47.936;8.716;2023-04-09T08:09:47;5.40;;;4.90;;
11228;SDS011;5671;47.936;8.716;2023-04-09T08:12:14;5.43;;;4.93;;
11228;SDS011;5671;47.936;8.716;2023-04-09T08:14:41;5.90;;;5.20;;
11228;SDS011;5671;47.936;8.716;2023-04-09T08:17:08;4.67;;;4.27;;
11228;SDS011;5671;47.936;8.716;2023-04-09T08:19:36;4.97;;;4.57;;
11228;SDS011;5671;47.936;8.716;2023-04-09T08:22:03;5.53;;;5.07;;
11228;SDS011;5671;47.936;8.716;2023-04-09T08:24:30;4.70;;;4.30;;
11228;SDS011;5671;47.936;8.716;2023-04-09T08:26:56;4.87;;;4.47;;
11228;SDS011;5671;47.936;8.716;2023-04-09T08:29:23;5.37;;;4.87;;
11228;SDS011;5671;47.936;8.716;2023-04-09T08:31:52;4.73;;;4.30;;
11228;SDS011;5671;47.936;8.716;2023-04-09T08:34:18;5.17;;;4.60;;
11228;SDS011;5671;47.936;8.716;2023-04-09T08:36:47;5.90;;;5.10;;
11228;SDS011;5671;47.936;8.716;2023-04-09T08:39:14;5.90;;;5.40;;
11228;SDS011;5671;47.936;8.716;2023-04-09T08:41:42;4.73;;;4.33;;
11228;SDS011;5671;47.936;8.716;2023-04-09T08:44:10;5.10;;;4.60;;
11228;SDS011;5671;47.936;8.716;2023-04-09T08:46:37;4.03;;;3.67;;
11228;SDS011;5671;47.936;8.716;2023-04-09T08:49:04;4.97;;;4.47;;
11228;SDS011;5671;47.936;8.716;2023-04-09T08:51:31;4.80;;;4.40;;
11228;SDS011;5671;47.936;8.716;2023-04-09T08:53:59;4.00;;;3.60;;
11228;SDS011;5671;47.936;8.716;2023-04-09T08:56:27;4.50;;;4.10;;
11228;SDS011;5671;47.936;8.716;2023-04-09T08:58:54;3.90;;;3.60;;
11228;SDS011;5671;47.936;8.716;2023-04-09T09:01:21;4.60;;;4.20;;
11228;SDS011;5671;47.936;8.716;2023-04-09T09:03:53;5.27;;;4.33;;
11228;SDS011;5671;47.936;8.716;2023-04-09T09:06:22;4.63;;;4.23;;
11228;SDS011;5671;47.936;8.716;2023-04-09T09:11:33;3.50;;;3.20;;
11228;SDS011;5671;47.936;8.716;2023-04-09T09:14:02;3.63;;;3.33;;
11228;SDS011;5671;47.936;8.716;2023-04-09T09:16:30;3.97;;;3.63;;
11228;SDS011;5671;47.936;8.716;2023-04-09T09:18:58;3.90;;;3.60;;
11228;SDS011;5671;47.936;8.716;2023-04-09T09:21:26;3.90;;;3.60;;
11228;SDS011;5671;47.936;8.716;2023-04-09T09:23:54;4.30;;;4.00;;
11228;SDS011;5671;47.936;8.716;2023-04-09T09:26:23;5.47;;;4.97;;
11228;SDS011;5671;47.936;8.716;2023-04-09T09:28:51;6.10;;;5.53;;
11228;SDS011;5671;47.936;8.716;2023-04-09T09:31:18;6.10;;;5.47;;
11228;SDS011;5671;47.936;8.716;2023-04-09T09:33:46;5.07;;;4.67;;
11228;SDS011;5671;47.936;8.716;2023-04-09T09:36:14;5.57;;;5.07;;
11228;SDS011;5671;47.936;8.716;2023-04-09T09:38:55;5.20;;;4.70;;
11228;SDS011;5671;47.936;8.716;2023-04-09T09:41:27;5.80;;;5.30;;
11228;SDS011;5671;47.936;8.716;2023-04-09T09:43:55;6.07;;;5.47;;
11228;SDS011;5671;47.936;8.716;2023-04-09T09:46:21;5.30;;;4.80;;
11228;SDS011;5671;47.936;8.716;2023-04-09T09:48:51;5.80;;;5.30;;
11228;SDS011;5671;47.936;8.716;2023-04-09T09:51:18;6.10;;;5.50;;
11228;SDS011;5671;47.936;8.716;2023-04-09T09:53:50;5.93;;;5.43;;
11228;SDS011;5671;47.936;8.716;2023-04-09T09:56:21;7.20;;;5.50;;
11228;SDS011;5671;47.936;8.716;2023-04-09T09:58:53;6.00;;;5.50;;
11228;SDS011;5671;47.936;8.716;2023-04-09T10:01:27;6.07;;;5.47;;
11228;SDS011;5671;47.936;8.716;2023-04-09T10:03:55;5.47;;;4.97;;
11228;SDS011;5671;47.936;8.716;2023-04-09T10:06:24;5.10;;;4.70;;
11228;SDS011;5671;47.936;8.716;2023-04-09T10:08:52;4.87;;;4.47;;
11228;SDS011;5671;47.936;8.716;2023-04-09T10:11:21;5.53;;;5.03;;
11228;SDS011;5671;47.936;8.716;2023-04-09T10:13:49;4.90;;;4.50;;
11228;SDS011;5671;47.936;8.716;2023-04-09T10:16:19;7.03;;;5.93;;
11228;SDS011;5671;47.936;8.716;2023-04-09T10:18:48;5.90;;;5.30;;
11228;SDS011;5671;47.936;8.716;2023-04-09T10:21:16;6.00;;;5.50;;
11228;SDS011;5671;47.936;8.716;2023-04-09T10:23:50;5.97;;;5.43;;
11228;SDS011;5671;47.936;8.716;2023-04-09T10:26:18;6.00;;;5.50;;
11228;SDS011;5671;47.936;8.716;2023-04-09T10:28:46;5.60;;;5.10;;
11228;SDS011;5671;47.936;8.716;2023-04-09T10:31:32;5.67;;;5.17;;
11228;SDS011;5671;47.936;8.716;2023-04-09T10:34:13;5.63;;;5.13;;
11228;SDS011;5671;47.936;8.716;2023-04-09T10:36:41;5.67;;;5.17;;
11228;SDS011;5671;47.936;8.716;2023-04-09T10:39:12;5.43;;;4.93;;
11228;SDS011;5671;47.936;8.716;2023-04-09T10:41:39;5.53;;;5.03;;
11228;SDS011;5671;47.936;8.716;2023-04-09T10:44:18;5.67;;;5.17;;
11228;SDS011;5671;47.936;8.716;2023-04-09T10:46:47;5.50;;;5.00;;
11228;SDS011;5671;47.936;8.716;2023-04-09T10:49:15;5.97;;;5.37;;
11228;SDS011;5671;47.936;8.716;2023-04-09T10:51:50;6.10;;;5.60;;
11228;SDS011;5671;47.936;8.716;2023-04-09T10:54:39;5.70;;;5.20;;
11228;SDS011;5671;47.936;8.716;2023-04-09T10:57:16;5.60;;;5.10;;
11228;SDS011;5671;47.936;8.716;2023-04-09T10:59:45;5.90;;;5.40;;
11228;SDS011;5671;47.936;8.716;2023-04-09T11:05:25;5.47;;;4.97;;
11228;SDS011;5671;47.936;8.716;2023-04-09T11:07:57;5.53;;;5.03;;
11228;SDS011;5671;47.936;8.716;2023-04-09T11:10:29;6.27;;;5.67;;
11228;SDS011;5671;47.936;8.716;2023-04-09T11:12:56;5.13;;;4.73;;
11228;SDS011;5671;47.936;8.716;2023-04-09T11:15:23;5.77;;;5.27;;
11228;SDS011;5671;47.936;8.716;2023-04-09T11:17:51;5.10;;;4.70;;
11228;SDS011;5671;47.936;8.716;2023-04-09T11:20:19;5.30;;;4.73;;
11228;SDS011;5671;47.936;8.716;2023-04-09T11:22:47;4.50;;;4.10;;
11228;SDS011;5671;47.936;8.716;2023-04-09T11:25:18;4.37;;;3.97;;
11228;SDS011;5671;47.936;8.716;2023-04-09T11:27:45;4.43;;;4.03;;
11228;SDS011;5671;47.936;8.716;2023-04-09T11:30:12;4.07;;;3.77;;
11228;SDS011;5671;47.936;8.716;2023-04-09T11:32:39;4.20;;;3.80;;
11228;SDS011;5671;47.936;8.716;2023-04-09T11:35:11;4.03;;;3.63;;
11228;SDS011;5671;47.936;8.716;2023-04-09T11:37:38;4.40;;;4.00;;
11228;SDS011;5671;47.936;8.716;2023-04-09T11:40:06;4.00;;;3.70;;
11228;SDS011;5671;47.936;8.716;2023-04-09T11:42:39;5.07;;;4.57;;
11228;SDS011;5671;47.936;8.716;2023-04-09T11:45:06;4.97;;;4.50;;
11228;SDS011;5671;47.936;8.716;2023-04-09T11:47:34;4.90;;;4.50;;
11228;SDS011;5671;47.936;8.716;2023-04-09T11:50:01;4.70;;;4.30;;
11228;SDS011;5671;47.936;8.716;2023-04-09T11:52:30;4.57;;;4.17;;
11228;SDS011;5671;47.936;8.716;2023-04-09T11:54:59;3.27;;;3.00;;
11228;SDS011;5671;47.936;8.716;2023-04-09T11:57:34;3.60;;;3.30;;
11228;SDS011;5671;47.936;8.716;2023-04-09T12:00:07;3.60;;;3.30;;
11228;SDS011;5671;47.936;8.716;2023-04-09T12:02:36;4.67;;;4.27;;
11228;SDS011;5671;47.936;8.716;2023-04-09T12:05:05;4.13;;;3.83;;
11228;SDS011;5671;47.936;8.716;2023-04-09T12:07:35;3.90;;;3.60;;
11228;SDS011;5671;47.936;8.716;2023-04-09T12:10:03;4.27;;;3.90;;
11228;SDS011;5671;47.936;8.716;2023-04-09T12:12:30;4.60;;;4.20;;
11228;SDS011;5671;47.936;8.716;2023-04-09T12:15:06;4.90;;;4.40;;
11228;SDS011;5671;47.936;8.716;2023-04-09T12:17:38;4.30;;;3.70;;
11228;SDS011;5671;47.936;8.716;2023-04-09T12:20:05;4.57;;;4.07;;
11228;SDS011;5671;47.936;8.716;2023-04-09T12:22:35;4.67;;;4.27;;
11228;SDS011;5671;47.936;8.716;2023-04-09T12:25:05;4.07;;;3.77;;
11228;SDS011;5671;47.936;8.716;2023-04-09T12:27:32;4.70;;;4.30;;
11228;SDS011;5671;47.936;8.716;2023-04-09T12:29:59;4.37;;;4.07;;
11228;SDS011;5671;47.936;8.716;2023-04-09T12:32:26;4.70;;;4.30;;
11228;SDS011;5671;47.936;8.716;2023-04-09T12:34:53;4.40;;;4.00;;
11228;SDS011;5671;47.936;8.716;2023-04-09T12:37:20;4.90;;;4.50;;
11228;SDS011;5671;47.936;8.716;2023-04-09T12:39:48;3.83;;;3.53;;
11228;SDS011;5671;47.936;8.716;2023-04-09T12:42:14;4.30;;;3.97;;
11228;SDS011;5671;47.936;8.716;2023-04-09T12:44:41;3.93;;;3.57;;
11228;SDS011;5671;47.936;8.716;2023-04-09T12:47:08;3.50;;;3.20;;
11228;SDS011;5671;47.936;8.716;2023-04-09T12:49:35;4.83;;;4.43;;
11228;SDS011;5671;47.936;8.716;2023-04-09T12:52:02;4.47;;;4.07;;
11228;SDS011;5671;47.936;8.716;2023-04-09T12:54:29;4.10;;;3.80;;
11228;SDS011;5671;47.936;8.716;2023-04-09T12:56:57;4.40;;;4.10;;
11228;SDS011;5671;47.936;8.716;2023-04-09T12:59:24;4.63;;;4.23;;
11228;SDS011;5671;47.936;8.716;2023-04-09T13:01:51;4.20;;;3.90;;
11228;SDS011;5671;47.936;8.716;2023-04-09T13:04:18;3.97;;;3.67;;
11228;SDS011;5671;47.936;8.716;2023-04-09T13:06:45;3.60;;;3.30;;
11228;SDS011;5671;47.936;8.716;2023-04-09T13:09:12;7.33;;;3.97;;
11228;SDS011;5671;47.936;8.716;2023-04-09T13:11:39;4.40;;;4.00;;
11228;SDS011;5671;47.936;8.716;2023-04-09T13:14:07;4.40;;;4.00;;
11228;SDS011;5671;47.936;8.716;2023-04-09T13:16:37;4.20;;;3.90;;
11228;SDS011;5671;47.936;8.716;2023-04-09T13:19:05;4.27;;;3.90;;
11228;SDS011;5671;47.936;8.716;2023-04-09T13:21:31;4.37;;;3.77;;
11228;SDS011;5671;47.936;8.716;2023-04-09T13:23:58;4.80;;;4.40;;
11228;SDS011;5671;47.936;8.716;2023-04-09T13:26:25;4.83;;;4.43;;
11228;SDS011;5671;47.936;8.716;2023-04-09T13:28:52;4.60;;;4.23;;
11228;SDS011;5671;47.936;8.716;2023-04-09T13:31:20;4.83;;;4.43;;
11228;SDS011;5671;47.936;8.716;2023-04-09T13:33:47;3.93;;;3.57;;
11228;SDS011;5671;47.936;8.716;2023-04-09T13:36:14;4.70;;;4.23;;
11228;SDS011;5671;47.936;8.716;2023-04-09T13:38:41;4.90;;;4.40;;
11228;SDS011;5671;47.936;8.716;2023-04-09T13:41:07;4.37;;;4.07;;
11228;SDS011;5671;47.936;8.716;2023-04-09T13:43:34;4.30;;;3.90;;
11228;SDS011;5671;47.936;8.716;2023-04-09T13:46:01;4.70;;;4.30;;
11228;SDS011;5671;47.936;8.716;2023-04-09T13:48:30;3.90;;;3.60;;
11228;SDS011;5671;47.936;8.716;2023-04-09T13:50:57;3.97;;;3.57;;
11228;SDS011;5671;47.936;8.716;2023-04-09T13:53:24;4.57;;;4.17;;
11228;SDS011;5671;47.936;8.716;2023-04-09T13:55:51;4.27;;;3.87;;
11228;SDS011;5671;47.936;8.716;2023-04-09T13:58:18;4.93;;;4.43;;
11228;SDS011;5671;47.936;8.716;2023-04-09T14:00:46;4.00;;;3.70;;
11228;SDS011;5671;47.936;8.716;2023-04-09T14:03:13;4.37;;;4.00;;
11228;SDS011;5671;47.936;8.716;2023-04-09T14:05:41;3.80;;;3.50;;
11228;SDS011;5671;47.936;8.716;2023-04-09T14:08:08;4.10;;;3.80;;
11228;SDS011;5671;47.936;8.716;2023-04-09T14:10:36;4.13;;;3.83;;
11228;SDS011;5671;47.936;8.716;2023-04-09T14:13:02;4.40;;;4.10;;
11228;SDS011;5671;47.936;8.716;2023-04-09T14:15:31;3.80;;;3.50;;
11228;SDS011;5671;47.936;8.716;2023-04-09T14:17:58;3.90;;;3.60;;
11228;SDS011;5671;47.936;8.716;2023-04-09T14:20:25;3.80;;;3.50;;
11228;SDS011;5671;47.936;8.716;2023-04-09T14:22:54;3.70;;;3.40;;
11228;SDS011;5671;47.936;8.716;2023-04-09T14:25:21;3.40;;;3.10;;
11228;SDS011;5671;47.936;8.716;2023-04-09T14:27:47;3.30;;;3.00;;
11228;SDS011;5671;47.936;8.716;2023-04-09T14:30:14;3.00;;;2.80;;
11228;SDS011;5671;47.936;8.716;2023-04-09T14:32:42;3.00;;;2.80;;
11228;SDS011;5671;47.936;8.716;2023-04-09T14:35:09;3.17;;;2.97;;
11228;SDS011;5671;47.936;8.716;2023-04-09T14:37:36;3.30;;;3.00;;
11228;SDS011;5671;47.936;8.716;2023-04-09T14:40:07;3.33;;;3.10;;
11228;SDS011;5671;47.936;8.716;2023-04-09T14:42:34;3.50;;;3.20;;
11228;SDS011;5671;47.936;8.716;2023-04-09T14:45:01;3.27;;;3.00;;
11228;SDS011;5671;47.936;8.716;2023-04-09T14:47:28;2.97;;;2.70;;
11228;SDS011;5671;47.936;8.716;2023-04-09T14:49:55;2.90;;;2.70;;
11228;SDS011;5671;47.936;8.716;2023-04-09T14:52:22;2.87;;;2.67;;
11228;SDS011;5671;47.936;8.716;2023-04-09T14:54:49;2.83;;;2.63;;
11228;SDS011;5671;47.936;8.716;2023-04-09T14:57:17;2.97;;;2.77;;
11228;SDS011;5671;47.936;8.716;2023-04-09T14:59:44;3.00;;;2.67;;
11228;SDS011;5671;47.936;8.716;2023-04-09T15:02:11;2.87;;;2.60;;
11228;SDS011;5671;47.936;8.716;2023-04-09T15:04:38;2.83;;;2.63;;
11228;SDS011;5671;47.936;8.716;2023-04-09T15:07:05;3.23;;;2.93;;
11228;SDS011;5671;47.936;8.716;2023-04-09T15:09:32;2.70;;;2.50;;